sensor_id;sensor_type;location;lat;lon;timestamp;pressure;altitude;pressure_sealevel;temperature;humidity
18323;BME280;9287;49.456;11.064;2024-01-30T00:00:53;99597.44;;;1.40;100.00
18323;BME280;9287;49.456;11.064;2024-01-30T00:03:21;99611.06;;;1.56;100.00
18323;BME280;9287;49.456;11.064;2024-01-30T00:05:49;99602.81;;;1.40;100.00
18323;BME280;9287;49.456;11.064;2024-01-30T00:08:17;99603.78;;;1.29;100.00
18323;BME280;9287;49.456;11.064;2024-01-30T00:10:45;99606.03;;;1.37;100.00
18323;BME280;9287;49.456;11.064;2024-01-30T00:13:14;99600.19;;;1.46;100.00
18323;BME280;9287;49.456;11.064;2024-01-30T00:15:44;99605.63;;;1.51;100.00
18323;BME280;9287;49.456;11.064;2024-01-30T00:18:12;99602.31;;;1.44;100.00
18323;BME280;9287;49.456;11.064;2024-01-30T00:20:40;99599.69;;;1.49;100.00
18323;BME280;9287;49.456;11.064;2024-01-30T00:23:09;99602.81;;;1.40;100.00
18323;BME280;9287;49.456;11.064;2024-01-30T00:25:37;99596.50;;;1.30;100.00
18323;BME280;9287;49.456;11.064;2024-01-30T00:28:05;99589.81;;;1.32;100.00
18323;BME280;9287;49.456;11.064;2024-01-30T00:30:34;99590.31;;;1.29;100.00
18323;BME280;9287;49.456;11.064;2024-01-30T00:33:02;99590.81;;;1.26;100.00
18323;BME280;9287;49.456;11.064;2024-01-30T00:35:30;99588.19;;;1.31;100.00
18323;BME280;9287;49.456;11.064;2024-01-30T00:37:58;99581.91;;;1.21;100.00
18323;BME280;9287;49.456;11.064;2024-01-30T00:40:27;99580.06;;;1.26;100.00
18323;BME280;9287;49.456;11.064;2024-01-30T00:42:55;99583.50;;;1.22;100.00
18323;BME280;9287;49.456;11.064;2024-01-30T00:45:23;99576.81;;;1.24;100.00
18323;BME280;9287;49.456;11.064;2024-01-30T00:47:52;99577.59;;;1.20;100.00
18323;BME280;9287;49.456;11.064;2024-01-30T00:50:20;99574.25;;;1.13;100.00
18323;BME280;9287;49.456;11.064;2024-01-30T00:52:48;99573.44;;;1.12;100.00
18323;BME280;9287;49.456;11.064;2024-01-30T00:55:16;99564.50;;;1.07;100.00
18323;BME280;9287;49.456;11.064;2024-01-30T00:57:44;99570.75;;;1.12;100.00
18323;BME280;9287;49.456;11.064;2024-01-30T01:00:13;99580.56;;;1.23;100.00
18323;BME280;9287;49.456;11.064;2024-01-30T01:02:44;99571.47;;;1.29;100.00
18323;BME280;9287;49.456;11.064;2024-01-30T01:05:13;99574.75;;;1.31;100.00
18323;BME280;9287;49.456;11.064;2024-01-30T01:07:41;99578.56;;;1.35;100.00
18323;BME280;9287;49.456;11.064;2024-01-30T01:10:10;99581.53;;;1.39;100.00
18323;BME280;9287;49.456;11.064;2024-01-30T01:12:40;99583.97;;;1.40;100.00
18323;BME280;9287;49.456;11.064;2024-01-30T01:15:08;99576.63;;;1.31;100.00
18323;BME280;9287;49.456;11.064;2024-01-30T01:17:37;99581.81;;;1.37;100.00
18323;BME280;9287;49.456;11.064;2024-01-30T01:20:05;99571.72;;;1.28;100.00
18323;BME280;9287;49.456;11.064;2024-01-30T01:22:35;99579.06;;;1.32;100.00
18323;BME280;9287;49.456;11.064;2024-01-30T01:25:06;99586.16;;;1.44;100.00
18323;BME280;9287;49.456;11.064;2024-01-30T01:27:35;99583.72;;;1.42;100.00
18323;BME280;9287;49.456;11.064;2024-01-30T01:30:09;99585.03;;;1.39;100.00
18323;BME280;9287;49.456;11.064;2024-01-30T01:32:39;99586.72;;;1.46;100.00
18323;BME280;9287;49.456;11.064;2024-01-30T01:35:12;99578.97;;;1.49;100.00
18323;BME280;9287;49.456;11.064;2024-01-30T01:37:41;99579.72;;;1.45;100.00
18323;BME280;9287;49.456;11.064;2024-01-30T01:40:10;99578.56;;;1.35;100.00
18323;BME280;9287;49.456;11.064;2024-01-30T01:42:38;99578.84;;;1.39;100.00
18323;BME280;9287;49.456;11.064;2024-01-30T01:45:07;99575.63;;;1.37;100.00
18323;BME280;9287;49.456;11.064;2024-01-30T01:47:35;99570.47;;;1.35;100.00
18323;BME280;9287;49.456;11.064;2024-01-30T01:50:04;99556.22;;;1.35;100.00
18323;BME280;9287;49.456;11.064;2024-01-30T01:52:32;99557.22;;;1.29;100.00
18323;BME280;9287;49.456;11.064;2024-01-30T01:55:02;99550.09;;;1.18;100.00
18323;BME280;9287;49.456;11.064;2024-01-30T01:57:30;99551.81;;;1.02;100.00
18323;BME280;9287;49.456;11.064;2024-01-30T01:59:59;99540.94;;;0.92;100.00
18323;BME280;9287;49.456;11.064;2024-01-30T02:02:28;99540.53;;;1.05;100.00
18323;BME280;9287;49.456;11.064;2024-01-30T02:04:58;99536.91;;;1.16;100.00
18323;BME280;9287;49.456;11.064;2024-01-30T02:07:27;99526.78;;;1.28;100.00
18323;BME280;9287;49.456;11.064;2024-01-30T02:09:56;99541.94;;;1.34;100.00
18323;BME280;9287;49.456;11.064;2024-01-30T02:12:25;99538.13;;;1.30;100.00
18323;BME280;9287;49.456;11.064;2024-01-30T02:14:54;99547.97;;;1.47;100.00
18323;BME280;9287;49.456;11.064;2024-01-30T02:17:23;99539.34;;;1.45;100.00
18323;BME280;9287;49.456;11.064;2024-01-30T02:19:51;99541.16;;;1.66;100.00
18323;BME280;9287;49.456;11.064;2024-01-30T02:22:21;99543.91;;;1.71;100.00
18323;BME280;9287;49.456;11.064;2024-01-30T02:24:49;99551.66;;;1.67;100.00
18323;BME280;9287;49.456;11.064;2024-01-30T02:27:17;99550.38;;;1.75;100.00
18323;BME280;9287;49.456;11.064;2024-01-30T02:29:46;99554.66;;;1.71;100.00
18323;BME280;9287;49.456;11.064;2024-01-30T02:32:13;99549.41;;;1.54;100.00
18323;BME280;9287;49.456;11.064;2024-01-30T02:34:42;99537.72;;;1.44;100.00
18323;BME280;9287;49.456;11.064;2024-01-30T02:37:09;99535.56;;;1.46;100.00
18323;BME280;9287;49.456;11.064;2024-01-30T02:39:39;99534.56;;;1.52;100.00
18323;BME280;9287;49.456;11.064;2024-01-30T02:42:07;99525.69;;;1.56;100.00
18323;BME280;9287;49.456;11.064;2024-01-30T02:44:34;99540.53;;;1.59;100.00
18323;BME280;9287;49.456;11.064;2024-01-30T02:47:02;99549.22;;;1.66;100.00
18323;BME280;9287;49.456;11.064;2024-01-30T02:49:30;99556.66;;;1.54;100.00
18323;BME280;9287;49.456;11.064;2024-01-30T02:51:58;99556.91;;;1.52;100.00
18323;BME280;9287;49.456;11.064;2024-01-30T02:54:26;99558.13;;;1.39;100.00
18323;BME280;9287;49.456;11.064;2024-01-30T02:56:56;99550.66;;;1.47;100.00
18323;BME280;9287;49.456;11.064;2024-01-30T02:59:23;99546.34;;;1.46;100.00
18323;BME280;9287;49.456;11.064;2024-01-30T03:01:51;99535.50;;;1.35;100.00
18323;BME280;9287;49.456;11.064;2024-01-30T03:04:19;99539.34;;;1.45;100.00
18323;BME280;9287;49.456;11.064;2024-01-30T03:06:47;99538.31;;;1.51;100.00
18323;BME280;9287;49.456;11.064;2024-01-30T03:09:16;99540.03;;;1.62;100.00
18323;BME280;9287;49.456;11.064;2024-01-30T03:11:44;99553.25;;;1.63;100.00
18323;BME280;9287;49.456;11.064;2024-01-30T03:14:14;99538.84;;;1.48;100.00
18323;BME280;9287;49.456;11.064;2024-01-30T03:16:42;99542.53;;;1.42;100.00
18323;BME280;9287;49.456;11.064;2024-01-30T03:19:10;99544.03;;;1.54;100.00
18323;BME280;9287;49.456;11.064;2024-01-30T03:21:38;99539.53;;;1.65;100.00
18323;BME280;9287;49.456;11.064;2024-01-30T03:24:06;99532.50;;;1.64;100.00
18323;BME280;9287;49.456;11.064;2024-01-30T03:26:33;99536.38;;;1.73;100.00
18323;BME280;9287;49.456;11.064;2024-01-30T03:29:01;99535.31;;;1.79;100.00
18323;BME280;9287;49.456;11.064;2024-01-30T03:31:30;99539.13;;;1.83;100.00
18323;BME280;9287;49.456;11.064;2024-01-30T03:33:58;99539.09;;;1.78;100.00
18323;BME280;9287;49.456;11.064;2024-01-30T03:36:27;99543.47;;;1.84;100.00
18323;BME280;9287;49.456;11.064;2024-01-30T03:38:55;99540.22;;;1.82;100.00
18323;BME280;9287;49.456;11.064;2024-01-30T03:41:23;99537.47;;;1.77;100.00
18323;BME280;9287;49.456;11.064;2024-01-30T03:43:51;99538.94;;;1.95;100.00
18323;BME280;9287;49.456;11.064;2024-01-30T03:46:18;99548.66;;;1.96;100.00
18323;BME280;9287;49.456;11.064;2024-01-30T03:48:48;99551.06;;;1.92;100.00
18323;BME280;9287;49.456;11.064;2024-01-30T03:51:16;99552.69;;;1.93;100.00
18323;BME280;9287;49.456;11.064;2024-01-30T03:53:44;99553.78;;;1.97;100.00
18323;BME280;9287;49.456;11.064;2024-01-30T03:56:13;99549.44;;;1.91;100.00
18323;BME280;9287;49.456;11.064;2024-01-30T03:58:41;99545.66;;;1.92;100.00
18323;BME280;9287;49.456;11.064;2024-01-30T04:01:13;99547.81;;;1.90;100.00
18323;BME280;9287;49.456;11.064;2024-01-30T04:03:41;99545.66;;;1.92;100.00
18323;BME280;9287;49.456;11.064;2024-01-30T04:06:12;99545.09;;;1.85;100.00
18323;BME280;9287;49.456;11.064;2024-01-30T04:08:40;99540.28;;;1.92;100.00
18323;BME280;9287;49.456;11.064;2024-01-30T04:11:07;99545.28;;;1.79;100.00
18323;BME280;9287;49.456;11.064;2024-01-30T04:13:35;99538.59;;;1.81;100.00
18323;BME280;9287;49.456;11.064;2024-01-30T04:16:04;99536.44;;;1.83;100.00
18323;BME280;9287;49.456;11.064;2024-01-30T04:18:32;99537.47;;;1.77;100.00
18323;BME280;9287;49.456;11.064;2024-01-30T04:21:00;99542.84;;;1.77;100.00
18323;BME280;9287;49.456;11.064;2024-01-30T04:23:30;99545.66;;;1.92;100.00
18323;BME280;9287;49.456;11.064;2024-01-30T04:25:58;99544.34;;;1.95;100.00
18323;BME280;9287;49.456;11.064;2024-01-30T04:28:26;99537.06;;;1.90;100.00
18323;BME280;9287;49.456;11.064;2024-01-30T04:30:54;99540.28;;;1.92;100.00
18323;BME280;9287;49.456;11.064;2024-01-30T04:33:25;99549.53;;;2.01;100.00
18323;BME280;9287;49.456;11.064;2024-01-30T04:35:56;99545.66;;;1.92;100.00
18323;BME280;9287;49.456;11.064;2024-01-30T04:38:23;99549.97;;;1.93;100.00
18323;BME280;9287;49.456;11.064;2024-01-30T04:40:54;99551.59;;;1.94;100.00
18323;BME280;9287;49.456;11.064;2024-01-30T04:43:22;99543.63;;;2.04;100.00
18323;BME280;9287;49.456;11.064;2024-01-30T04:45:52;99549.53;;;2.01;100.00
18323;BME280;9287;49.456;11.064;2024-01-30T04:48:21;99550.84;;;1.99;100.00
18323;BME280;9287;49.456;11.064;2024-01-30T04:50:50;99556.50;;;1.97;100.00
18323;BME280;9287;49.456;11.064;2024-01-30T04:53:18;99563.06;;;2.12;100.00
18323;BME280;9287;49.456;11.064;2024-01-30T04:55:46;99569.50;;;2.10;100.00
18323;BME280;9287;49.456;11.064;2024-01-30T04:58:15;99564.00;;;1.90;100.00
18323;BME280;9287;49.456;11.064;2024-01-30T05:00:43;99564.25;;;1.94;100.00
18323;BME280;9287;49.456;11.064;2024-01-30T05:03:12;99569.06;;;1.87;100.00
18323;BME280;9287;49.456;11.064;2024-01-30T05:05:40;99559.69;;;1.94;100.00
18323;BME280;9287;49.456;11.064;2024-01-30T05:08:09;99572.69;;;2.02;100.00
18323;BME280;9287;49.456;11.064;2024-01-30T05:10:36;99572.91;;;1.96;100.00
18323;BME280;9287;49.456;11.064;2024-01-30T05:13:04;99566.00;;;2.05;100.00
18323;BME280;9287;49.456;11.064;2024-01-30T05:15:34;99576.63;;;2.22;100.00
18323;BME280;9287;49.456;11.064;2024-01-30T05:18:02;99574.91;;;2.10;100.00
18323;BME280;9287;49.456;11.064;2024-01-30T05:20:30;99576.38;;;1.91;100.00
18323;BME280;9287;49.456;11.064;2024-01-30T05:22:58;99573.75;;;2.01;100.00
18323;BME280;9287;49.456;11.064;2024-01-30T05:25:26;99571.06;;;2.01;100.00
18323;BME280;9287;49.456;11.064;2024-01-30T05:27:54;99575.84;;;1.89;100.00
18323;BME280;9287;49.456;11.064;2024-01-30T05:30:22;99576.72;;;1.68;100.00
18323;BME280;9287;49.456;11.064;2024-01-30T05:32:51;99570.81;;;1.71;100.00
18323;BME280;9287;49.456;11.064;2024-01-30T05:35:19;99575.41;;;1.70;100.00
18323;BME280;9287;49.456;11.064;2024-01-30T05:37:48;99572.97;;;1.74;100.00
18323;BME280;9287;49.456;11.064;2024-01-30T05:40:16;99578.94;;;1.76;100.00
18323;BME280;9287;49.456;11.064;2024-01-30T05:42:45;99577.41;;;1.85;100.00
18323;BME280;9287;49.456;11.064;2024-01-30T05:45:13;99576.09;;;1.61;100.00
18323;BME280;9287;49.456;11.064;2024-01-30T05:47:41;99576.72;;;1.68;100.00
18323;BME280;9287;49.456;11.064;2024-01-30T05:50:10;99583.50;;;1.75;100.00
18323;BME280;9287;49.456;11.064;2024-01-30T05:52:38;99583.75;;;1.74;100.00
18323;BME280;9287;49.456;11.064;2024-01-30T05:55:07;99581.88;;;1.74;100.00
18323;BME280;9287;49.456;11.064;2024-01-30T05:57:39;99580.22;;;1.68;100.00
18323;BME280;9287;49.456;11.064;2024-01-30T06:00:07;99578.69;;;1.78;100.00
18323;BME280;9287;49.456;11.064;2024-01-30T06:02:36;99583.81;;;1.79;100.00
18323;BME280;9287;49.456;11.064;2024-01-30T06:05:04;99580.66;;;1.87;100.00
18323;BME280;9287;49.456;11.064;2024-01-30T06:07:33;99583.38;;;1.92;100.00
18323;BME280;9287;49.456;11.064;2024-01-30T06:10:03;99586.63;;;1.94;100.00
18323;BME280;9287;49.456;11.064;2024-01-30T06:12:32;99588.25;;;1.95;100.00
18323;BME280;9287;49.456;11.064;2024-01-30T06:14:59;99590.41;;;1.93;100.00
18323;BME280;9287;49.456;11.064;2024-01-30T06:17:27;99581.72;;;1.86;100.00
18323;BME280;9287;49.456;11.064;2024-01-30T06:19:55;99585.75;;;1.84;100.00
18323;BME280;9287;49.456;11.064;2024-01-30T06:22:23;99595.00;;;1.66;100.00
18323;BME280;9287;49.456;11.064;2024-01-30T06:24:53;99590.81;;;1.80;100.00
18323;BME280;9287;49.456;11.064;2024-01-30T06:27:21;99586.38;;;1.64;100.00
18323;BME280;9287;49.456;11.064;2024-01-30T06:29:48;99595.09;;;1.76;100.00
18323;BME280;9287;49.456;11.064;2024-01-30T06:32:16;99592.31;;;1.66;100.00
18323;BME280;9287;49.456;11.064;2024-01-30T06:34:44;99596.56;;;1.62;100.00
18323;BME280;9287;49.456;11.064;2024-01-30T06:37:13;99595.69;;;1.56;100.00
18323;BME280;9287;49.456;11.064;2024-01-30T06:39:41;99588.91;;;1.49;100.00
18323;BME280;9287;49.456;11.064;2024-01-30T06:42:10;99590.41;;;1.39;100.00
18323;BME280;9287;49.456;11.064;2024-01-30T06:44:38;99586.13;;;1.38;100.00
18323;BME280;9287;49.456;11.064;2024-01-30T06:47:06;99587.47;;;1.41;100.00
18323;BME280;9287;49.456;11.064;2024-01-30T06:49:34;99597.63;;;1.61;100.00
18323;BME280;9287;49.456;11.064;2024-01-30T06:52:05;99595.44;;;1.53;100.00
18323;BME280;9287;49.456;11.064;2024-01-30T06:54:34;99590.41;;;1.39;100.00
18323;BME280;9287;49.456;11.064;2024-01-30T06:57:02;99588.28;;;1.42;100.00
18323;BME280;9287;49.456;11.064;2024-01-30T06:59:31;99589.88;;;1.37;100.00
18323;BME280;9287;49.456;11.064;2024-01-30T07:01:59;99585.84;;;1.40;100.00
18323;BME280;9287;49.456;11.064;2024-01-30T07:04:27;99592.66;;;1.48;100.00
18323;BME280;9287;49.456;11.064;2024-01-30T07:06:55;99598.00;;;1.43;100.00
18323;BME280;9287;49.456;11.064;2024-01-30T07:09:24;99596.56;;;1.62;100.00
18323;BME280;9287;49.456;11.064;2024-01-30T07:11:53;99598.72;;;1.60;100.00
18323;BME280;9287;49.456;11.064;2024-01-30T07:14:22;99599.78;;;1.59;100.00
18323;BME280;9287;49.456;11.064;2024-01-30T07:16:51;99595.31;;;1.43;100.00
18323;BME280;9287;49.456;11.064;2024-01-30T07:19:19;99606.91;;;1.70;100.00
18323;BME280;9287;49.456;11.064;2024-01-30T07:21:47;99602.09;;;1.72;100.00
18323;BME280;9287;49.456;11.064;2024-01-30T07:24:15;99608.09;;;1.57;100.00
18323;BME280;9287;49.456;11.064;2024-01-30T07:26:42;99609.09;;;1.73;100.00
18323;BME280;9287;49.456;11.064;2024-01-30T07:29:11;99617.19;;;1.78;100.00
18323;BME280;9287;49.456;11.064;2024-01-30T07:31:38;99614.06;;;1.91;100.00
18323;BME280;9287;49.456;11.064;2024-01-30T07:34:08;99622.63;;;1.83;100.00
18323;BME280;9287;49.456;11.064;2024-01-30T07:36:37;99616.81;;;1.96;100.00
18323;BME280;9287;49.456;11.064;2024-01-30T07:39:05;99616.94;;;2.06;100.00
18323;BME280;9287;49.456;11.064;2024-01-30T07:41:33;99614.81;;;2.14;100.00
18323;BME280;9287;49.456;11.064;2024-01-30T07:44:02;99615.97;;;2.23;100.00
18323;BME280;9287;49.456;11.064;2024-01-30T07:46:30;99621.44;;;2.33;100.00
18323;BME280;9287;49.456;11.064;2024-01-30T07:48:58;99620.38;;;2.34;100.00
18323;BME280;9287;49.456;11.064;2024-01-30T07:51:28;99614.25;;;2.49;100.00
18323;BME280;9287;49.456;11.064;2024-01-30T07:53:58;99629.13;;;2.51;100.00
18323;BME280;9287;49.456;11.064;2024-01-30T07:56:26;99627.31;;;2.67;100.00
18323;BME280;9287;49.456;11.064;2024-01-30T07:58:54;99624.88;;;2.65;100.00
18323;BME280;9287;49.456;11.064;2024-01-30T08:01:22;99630.41;;;2.86;100.00
18323;BME280;9287;49.456;11.064;2024-01-30T08:03:50;99631.28;;;3.01;100.00
18323;BME280;9287;49.456;11.064;2024-01-30T08:06:18;99628.41;;;2.66;100.00
18323;BME280;9287;49.456;11.064;2024-01-30T08:08:50;99632.03;;;2.87;100.00
18323;BME280;9287;49.456;11.064;2024-01-30T08:11:20;99630.41;;;2.86;100.00
18323;BME280;9287;49.456;11.064;2024-01-30T08:13:52;99633.69;;;2.98;100.00
18323;BME280;9287;49.456;11.064;2024-01-30T08:16:19;99631.88;;;2.61;100.00
18323;BME280;9287;49.456;11.064;2024-01-30T08:18:47;99633.19;;;3.01;100.00
18323;BME280;9287;49.456;11.064;2024-01-30T08:21:15;99629.88;;;2.89;100.00
18323;BME280;9287;49.456;11.064;2024-01-30T08:23:44;99634.75;;;2.92;100.00
18323;BME280;9287;49.456;11.064;2024-01-30T08:26:13;99626.50;;;3.19;100.00
18323;BME280;9287;49.456;11.064;2024-01-30T08:28:41;99624.16;;;3.37;100.00
18323;BME280;9287;49.456;11.064;2024-01-30T08:31:10;99623.13;;;3.59;100.00
18323;BME280;9287;49.456;11.064;2024-01-30T08:33:38;99624.16;;;3.47;100.00
18323;BME280;9287;49.456;11.064;2024-01-30T08:36:08;99615.59;;;3.61;100.00
18323;BME280;9287;49.456;11.064;2024-01-30T08:38:36;99624.22;;;3.63;100.00
18323;BME280;9287;49.456;11.064;2024-01-30T08:41:05;99626.63;;;3.54;100.00
18323;BME280;9287;49.456;11.064;2024-01-30T08:43:34;99617.75;;;3.74;100.00
18323;BME280;9287;49.456;11.064;2024-01-30T08:46:03;99628.00;;;3.62;100.00
18323;BME280;9287;49.456;11.064;2024-01-30T08:48:32;99633.44;;;3.72;100.00
18323;BME280;9287;49.456;11.064;2024-01-30T08:50:59;99628.03;;;3.72;100.00
18323;BME280;9287;49.456;11.064;2024-01-30T08:53:28;99628.59;;;3.79;100.00
18323;BME280;9287;49.456;11.064;2024-01-30T08:55:56;99624.53;;;3.87;100.00
18323;BME280;9287;49.456;11.064;2024-01-30T08:58:25;99622.66;;;3.92;100.00
18323;BME280;9287;49.456;11.064;2024-01-30T09:00:55;99616.72;;;4.05;100.00
18323;BME280;9287;49.456;11.064;2024-01-30T09:03:22;99623.22;;;4.09;100.00
18323;BME280;9287;49.456;11.064;2024-01-30T09:05:50;99628.06;;;4.17;100.00
18323;BME280;9287;49.456;11.064;2024-01-30T09:08:18;99618.06;;;4.23;100.00
18323;BME280;9287;49.456;11.064;2024-01-30T09:10:46;99620.50;;;4.25;100.00
18323;BME280;9287;49.456;11.064;2024-01-30T09:13:15;99625.63;;;4.41;100.00
18323;BME280;9287;49.456;11.064;2024-01-30T09:15:42;99624.00;;;4.20;100.00
18323;BME280;9287;49.456;11.064;2024-01-30T09:18:12;99630.22;;;4.61;100.00
18323;BME280;9287;49.456;11.064;2024-01-30T09:20:40;99631.56;;;4.64;100.00
18323;BME280;9287;49.456;11.064;2024-01-30T09:23:08;99623.59;;;5.08;100.00
18323;BME280;9287;49.456;11.064;2024-01-30T09:25:36;99630.91;;;5.67;100.00
18323;BME280;9287;49.456;11.064;2024-01-30T09:28:04;99632.63;;;5.47;100.00
18323;BME280;9287;49.456;11.064;2024-01-30T09:30:33;99632.59;;;6.36;100.00
18323;BME280;9287;49.456;11.064;2024-01-30T09:33:00;99626.63;;;6.39;100.00
18323;BME280;9287;49.456;11.064;2024-01-30T09:35:30;99634.09;;;7.05;100.00
18323;BME280;9287;49.456;11.064;2024-01-30T09:37:59;99624.72;;;6.68;100.00
18323;BME280;9287;49.456;11.064;2024-01-30T09:40:27;99643.56;;;6.83;100.00
18323;BME280;9287;49.456;11.064;2024-01-30T09:42:55;99643.63;;;6.15;100.00
18323;BME280;9287;49.456;11.064;2024-01-30T09:45:24;99636.06;;;6.75;100.00
18323;BME280;9287;49.456;11.064;2024-01-30T09:47:53;99635.13;;;5.83;100.00
18323;BME280;9287;49.456;11.064;2024-01-30T09:50:21;99639.00;;;6.50;100.00
18323;BME280;9287;49.456;11.064;2024-01-30T09:52:51;99639.59;;;6.42;100.00
18323;BME280;9287;49.456;11.064;2024-01-30T09:55:20;99641.59;;;5.97;100.00
18323;BME280;9287;49.456;11.064;2024-01-30T09:57:49;99632.13;;;5.89;100.00
18323;BME280;9287;49.456;11.064;2024-01-30T10:00:17;99633.34;;;6.07;100.00
18323;BME280;9287;49.456;11.064;2024-01-30T10:02:45;99624.81;;;6.24;100.00
18323;BME280;9287;49.456;11.064;2024-01-30T10:05:15;99631.38;;;6.23;100.00
18323;BME280;9287;49.456;11.064;2024-01-30T10:07:52;99626.03;;;6.42;100.00
18323;BME280;9287;49.456;11.064;2024-01-30T10:10:22;99626.94;;;6.61;100.00
18323;BME280;9287;49.456;11.064;2024-01-30T10:12:51;99627.31;;;6.78;100.00
18323;BME280;9287;49.456;11.064;2024-01-30T10:15:19;99630.19;;;6.92;100.00
18323;BME280;9287;49.456;11.064;2024-01-30T10:17:47;99626.78;;;6.18;100.00
18323;BME280;9287;49.456;11.064;2024-01-30T10:20:15;99627.38;;;6.73;100.00
18323;BME280;9287;49.456;11.064;2024-01-30T10:22:44;99622.81;;;6.40;100.00
18323;BME280;9287;49.456;11.064;2024-01-30T10:25:16;99622.00;;;6.39;100.00
18323;BME280;9287;49.456;11.064;2024-01-30T10:27:44;99625.19;;;6.75;100.00
18323;BME280;9287;49.456;11.064;2024-01-30T10:30:13;99624.03;;;6.81;100.00
18323;BME280;9287;49.456;11.064;2024-01-30T10:32:42;99624.13;;;6.71;100.00
18323;BME280;9287;49.456;11.064;2024-01-30T10:35:10;99622.03;;;6.63;100.00
18323;BME280;9287;49.456;11.064;2024-01-30T10:37:39;99616.59;;;6.63;100.00
18323;BME280;9287;49.456;11.064;2024-01-30T10:40:14;99616.84;;;6.67;100.00
18323;BME280;9287;49.456;11.064;2024-01-30T10:42:43;99618.03;;;6.84;100.00
18323;BME280;9287;49.456;11.064;2024-01-30T10:45:13;99613.81;;;6.73;100.00
18323;BME280;9287;49.456;11.064;2024-01-30T10:47:44;99615.13;;;6.99;100.00
18323;BME280;9287;49.456;11.064;2024-01-30T10:50:16;99614.31;;;6.99;100.00
18323;BME280;9287;49.456;11.064;2024-01-30T10:52:48;99612.38;;;7.05;100.00
18323;BME280;9287;49.456;11.064;2024-01-30T10:55:21;99612.03;;;7.30;100.00
18323;BME280;9287;49.456;11.064;2024-01-30T10:57:50;99603.00;;;7.58;100.00
18323;BME280;9287;49.456;11.064;2024-01-30T11:00:18;99611.31;;;7.01;100.00
18323;BME280;9287;49.456;11.064;2024-01-30T11:02:50;99602.16;;;7.39;100.00
18323;BME280;9287;49.456;11.064;2024-01-30T11:05:23;99609.22;;;7.40;100.00
18323;BME280;9287;49.456;11.064;2024-01-30T11:07:58;99609.38;;;7.67;100.00
18323;BME280;9287;49.456;11.064;2024-01-30T11:10:28;99609.97;;;7.64;100.00
18323;BME280;9287;49.456;11.064;2024-01-30T11:12:58;99612.97;;;7.44;100.00
18323;BME280;9287;49.456;11.064;2024-01-30T11:15:26;99604.88;;;7.39;100.00
18323;BME280;9287;49.456;11.064;2024-01-30T11:17:54;99608.91;;;7.23;100.00
18323;BME280;9287;49.456;11.064;2024-01-30T11:20:25;99603.78;;;7.40;100.00
18323;BME280;9287;49.456;11.064;2024-01-30T11:22:55;99598.72;;;7.52;100.00
18323;BME280;9287;49.456;11.064;2024-01-30T11:25:24;99598.25;;;7.45;100.00
18323;BME280;9287;49.456;11.064;2024-01-30T11:27:55;99587.34;;;7.69;100.00
18323;BME280;9287;49.456;11.064;2024-01-30T11:30:24;99588.88;;;7.75;100.00
18323;BME280;9287;49.456;11.064;2024-01-30T11:33:01;99587.16;;;7.98;100.00
18323;BME280;9287;49.456;11.064;2024-01-30T11:35:33;99583.94;;;7.96;100.00
18323;BME280;9287;49.456;11.064;2024-01-30T11:38:03;99579.13;;;8.07;98.21
18323;BME280;9287;49.456;11.064;2024-01-30T11:40:31;99574.31;;;8.17;96.13
18323;BME280;9287;49.456;11.064;2024-01-30T11:43:04;99579.84;;;8.31;94.61
18323;BME280;9287;49.456;11.064;2024-01-30T11:45:33;99567.91;;;8.27;94.15
18323;BME280;9287;49.456;11.064;2024-01-30T11:48:02;99576.34;;;8.12;98.59
18323;BME280;9287;49.456;11.064;2024-01-30T11:50:35;99570.19;;;8.38;94.57
18323;BME280;9287;49.456;11.064;2024-01-30T11:53:05;99561.41;;;8.09;97.34
18323;BME280;9287;49.456;11.064;2024-01-30T11:55:33;99560.06;;;8.25;99.84
18323;BME280;9287;49.456;11.064;2024-01-30T11:58:04;99553.34;;;8.04;100.00
18323;BME280;9287;49.456;11.064;2024-01-30T12:00:32;99561.44;;;8.42;96.74
18323;BME280;9287;49.456;11.064;2024-01-30T12:03:02;99553.84;;;8.38;97.22
18323;BME280;9287;49.456;11.064;2024-01-30T12:05:32;99545.41;;;8.54;94.64
18323;BME280;9287;49.456;11.064;2024-01-30T12:08:00;99550.66;;;8.50;94.88
18323;BME280;9287;49.456;11.064;2024-01-30T12:10:29;99547.03;;;8.68;93.69
18323;BME280;9287;49.456;11.064;2024-01-30T12:12:58;99548.03;;;8.86;93.67
18323;BME280;9287;49.456;11.064;2024-01-30T12:15:27;99550.66;;;9.05;91.00
18323;BME280;9287;49.456;11.064;2024-01-30T12:18:04;99541.78;;;8.86;89.82
18323;BME280;9287;49.456;11.064;2024-01-30T12:20:33;99537.34;;;8.90;89.00
18323;BME280;9287;49.456;11.064;2024-01-30T12:23:01;99529.56;;;9.11;89.41
18323;BME280;9287;49.456;11.064;2024-01-30T12:25:29;99529.06;;;9.08;88.06
18323;BME280;9287;49.456;11.064;2024-01-30T12:27:58;99527.69;;;9.47;86.33
18323;BME280;9287;49.456;11.064;2024-01-30T12:30:27;99522.63;;;9.76;82.14
18323;BME280;9287;49.456;11.064;2024-01-30T12:32:56;99520.63;;;9.91;78.59
18323;BME280;9287;49.456;11.064;2024-01-30T12:35:25;99515.88;;;9.38;81.71
18323;BME280;9287;49.456;11.064;2024-01-30T12:37:58;99515.72;;;9.21;84.87
18323;BME280;9287;49.456;11.064;2024-01-30T12:40:26;99520.16;;;9.53;82.76
18323;BME280;9287;49.456;11.064;2024-01-30T12:42:56;99513.09;;;9.29;85.42
18323;BME280;9287;49.456;11.064;2024-01-30T12:45:25;99510.94;;;9.40;84.44
18323;BME280;9287;49.456;11.064;2024-01-30T12:47:55;99503.88;;;9.39;82.86
18323;BME280;9287;49.456;11.064;2024-01-30T12:50:24;99512.44;;;9.46;83.25
18323;BME280;9287;49.456;11.064;2024-01-30T12:52:52;99504.19;;;9.60;81.34
18323;BME280;9287;49.456;11.064;2024-01-30T12:55:20;99510.09;;;9.75;79.05
18323;BME280;9287;49.456;11.064;2024-01-30T12:57:48;99496.06;;;9.91;77.43
18323;BME280;9287;49.456;11.064;2024-01-30T13:00:16;99498.06;;;9.54;81.33
18323;BME280;9287;49.456;11.064;2024-01-30T13:02:44;99499.97;;;9.31;84.60
18323;BME280;9287;49.456;11.064;2024-01-30T13:05:14;99500.78;;;9.32;83.57
18323;BME280;9287;49.456;11.064;2024-01-30T13:07:42;99499.38;;;9.21;85.74
18323;BME280;9287;49.456;11.064;2024-01-30T13:10:10;99494.72;;;9.35;85.82